You are not logged in, Click here to log in
機場資訊:ZWWW Welcome to Taiwan Airways 台灣虛擬航空
ICAO: ZWWW Country: 中國新疆維吾爾自治區首府烏魯木齊市西北方向16公里
Latitude: 43.9072 Longitude: 87.4742
Total Arrivals: 3 Total Departures: 5
Latest Arrival: FS11 (ZPLJ-ZWWW)CHU. CHUHAO Latest Departure: MU2614 (ZWWW-ZLIC)CHU. CHUHAO
Scenery:
METAR : ZWWW 141800Z VRB01MPS CAVOK 13/M00 Q1024 NOSIG

烏魯木齊地窩堡國際機場